createdAt,value
2018-12-24T00:00:32.007Z,93.08
2018-12-24T00:03:03.954Z,93.65
2018-12-24T00:05:37.244Z,93.71
2018-12-24T00:08:10.630Z,93.68
2018-12-24T00:10:43.846Z,93.64
2018-12-24T00:13:15.928Z,93.63
2018-12-24T00:15:48.490Z,93.69
2018-12-24T00:18:20.073Z,93.43
2018-12-24T00:20:53.917Z,93.66
2018-12-24T00:23:29.405Z,93.63
2018-12-24T00:26:01.320Z,93.76
2018-12-24T00:28:34.578Z,93.72
2018-12-24T00:31:05.880Z,93.64
2018-12-24T00:33:40.542Z,93.08
2018-12-24T00:36:12.923Z,93.25
2018-12-24T00:38:46.141Z,93.50
2018-12-24T00:41:21.162Z,93.69
2018-12-24T00:43:53.558Z,93.78
2018-12-24T00:46:25.182Z,93.91
2018-12-24T00:48:57.937Z,94.02
2018-12-24T00:51:32.754Z,94.07
2018-12-24T00:54:04.955Z,94.02
2018-12-24T00:56:36.911Z,94.00
2018-12-24T00:59:10.143Z,94.09
2018-12-24T01:01:43.298Z,94.09
2018-12-24T01:04:14.525Z,94.04
2018-12-24T01:06:47.943Z,94.05
2018-12-24T01:09:21.968Z,93.89
2018-12-24T01:11:55.014Z,93.50
2018-12-24T01:14:29.092Z,93.71
2018-12-24T01:17:04.574Z,93.74
2018-12-24T01:19:36.586Z,93.74
2018-12-24T01:22:08.984Z,93.52
2018-12-24T01:24:41.139Z,93.60
2018-12-24T01:27:13.063Z,94.63
2018-12-24T01:29:47.137Z,95.09
2018-12-24T01:32:21.063Z,95.54
2018-12-24T01:34:54.247Z,96.21
2018-12-24T01:37:25.443Z,96.52
2018-12-24T01:39:59.075Z,96.50
2018-12-24T01:42:33.517Z,96.54
2018-12-24T01:45:06.936Z,96.35
2018-12-24T01:47:39.131Z,97.53
2018-12-24T01:50:10.909Z,97.56
2018-12-24T01:52:44.347Z,97.23
2018-12-24T01:55:18.086Z,96.93
2018-12-24T01:57:50.333Z,96.54
2018-12-24T02:00:22.311Z,96.58
2018-12-24T02:02:56.197Z,96.06
2018-12-24T02:05:29.381Z,96.37
2018-12-24T02:08:02.232Z,96.34
2018-12-24T02:10:35.852Z,95.86
2018-12-24T02:13:07.061Z,95.71
2018-12-24T02:15:43.079Z,95.65
2018-12-24T02:18:15.849Z,95.45
2018-12-24T02:20:49.170Z,95.24
2018-12-24T02:23:21.962Z,94.93
2018-12-24T02:25:54.537Z,94.81
2018-12-24T02:28:29.131Z,94.78
2018-12-24T02:31:01.474Z,94.23
2018-12-24T02:33:34.240Z,94.10
2018-12-24T02:36:06.009Z,93.78
2018-12-24T02:38:38.257Z,93.51
2018-12-24T02:41:11.556Z,93.56
2018-12-24T02:43:45.701Z,94.00
2018-12-24T02:46:18.588Z,94.55
2018-12-24T02:48:50.617Z,93.89
2018-12-24T02:51:23.402Z,93.70
2018-12-24T02:53:56.628Z,94.00
2018-12-24T02:56:30.527Z,92.09
2018-12-24T02:59:03.539Z,85.14
2018-12-24T03:01:37.647Z,87.12
2018-12-24T03:04:12.663Z,85.76
2018-12-24T03:06:43.869Z,87.50
2018-12-24T03:09:15.333Z,87.10
2018-12-24T03:11:50.466Z,88.59
2018-12-24T03:14:22.979Z,86.27
2018-12-24T03:16:56.872Z,88.70
2018-12-24T03:19:28.642Z,88.54
2018-12-24T03:22:00.939Z,86.58
2018-12-24T03:24:34.426Z,87.58
2018-12-24T03:27:05.744Z,88.20
2018-12-24T03:29:38.707Z,88.01
2018-12-24T03:32:14.527Z,87.94
2018-12-24T03:34:47.042Z,87.88
2018-12-24T03:37:20.606Z,87.62
2018-12-24T03:39:53.747Z,88.16
2018-12-24T03:42:24.985Z,88.19
2018-12-24T03:44:57.678Z,88.21
2018-12-24T03:47:28.899Z,87.37
2018-12-24T03:50:00.905Z,88.51
2018-12-24T03:52:32.886Z,87.37
2018-12-24T03:55:05.402Z,87.53
2018-12-24T03:57:37.009Z,87.58
2018-12-24T04:00:09.893Z,87.75
2018-12-24T04:02:43.814Z,87.72
2018-12-24T04:05:15.366Z,87.88
2018-12-24T04:07:48.842Z,87.13
2018-12-24T04:10:20.049Z,86.24
2018-12-24T04:12:52.884Z,87.10
2018-12-24T04:15:24.096Z,85.52
2018-12-24T04:17:57.852Z,86.88
2018-12-24T04:20:31.884Z,85.96
2018-12-24T04:23:04.847Z,85.86
2018-12-24T04:25:40.626Z,86.19
2018-12-24T04:28:15.559Z,85.37
2018-12-24T04:30:46.780Z,85.71
2018-12-24T04:33:20.874Z,85.72
2018-12-24T04:35:53.991Z,86.55
2018-12-24T04:38:25.582Z,86.28
2018-12-24T04:40:58.969Z,87.12
2018-12-24T04:43:32.343Z,86.99
2018-12-24T04:46:06.091Z,87.37
2018-12-24T04:48:40.072Z,86.66
2018-12-24T04:51:13.048Z,86.31
2018-12-24T04:53:47.115Z,85.24
2018-12-24T04:56:20.533Z,85.49
2018-12-24T04:58:54.197Z,86.04
2018-12-24T05:01:28.207Z,85.99
2018-12-24T05:04:01.170Z,86.44
2018-12-24T05:06:32.384Z,86.21
2018-12-24T05:09:07.572Z,87.05
2018-12-24T05:11:39.014Z,86.61
2018-12-24T05:14:13.037Z,86.92
2018-12-24T05:16:44.587Z,85.94
2018-12-24T05:19:16.071Z,86.32
2018-12-24T05:21:49.174Z,85.39
2018-12-24T05:24:22.147Z,84.47
2018-12-24T05:26:56.924Z,84.72
2018-12-24T05:29:30.131Z,83.88
2018-12-24T05:32:03.038Z,84.04
2018-12-24T05:34:35.819Z,85.35
2018-12-24T05:37:07.033Z,85.71
2018-12-24T05:39:39.889Z,86.27
2018-12-24T05:42:12.970Z,85.88
2018-12-24T05:44:46.588Z,85.90
2018-12-24T05:47:20.238Z,84.67
2018-12-24T05:49:53.122Z,85.25
2018-12-24T05:55:49.515Z,85.91
2018-12-24T05:58:22.296Z,85.42
2018-12-24T06:00:53.882Z,83.88
2018-12-24T06:03:27.311Z,83.70
2018-12-24T06:06:02.019Z,84.31
2018-12-24T06:08:35.214Z,84.65
2018-12-24T06:11:06.582Z,85.50
2018-12-24T06:13:37.895Z,84.08
2018-12-24T06:16:10.369Z,84.21
2018-12-24T06:18:44.968Z,84.41
2018-12-24T06:21:16.352Z,85.48
2018-12-24T06:23:50.309Z,85.77
2018-12-24T06:26:24.229Z,85.75
2018-12-24T06:28:57.487Z,85.15
2018-12-24T06:31:31.427Z,85.16
2018-12-24T06:34:02.683Z,85.28
2018-12-24T06:36:35.953Z,85.11
2018-12-24T06:39:08.346Z,85.18
2018-12-24T06:41:41.745Z,85.43
2018-12-24T06:44:13.572Z,85.62
2018-12-24T06:46:45.993Z,85.57
2018-12-24T06:49:19.561Z,85.82
2018-12-24T06:51:53.388Z,86.39
2018-12-24T06:54:26.554Z,86.38
2018-12-24T06:57:01.289Z,86.73
2018-12-24T06:59:33.498Z,86.59
2018-12-24T07:02:06.019Z,85.93
2018-12-24T07:04:39.289Z,87.02
2018-12-24T07:07:12.467Z,86.51
2018-12-24T07:09:45.663Z,86.68
2018-12-24T07:12:21.325Z,86.99
2018-12-24T07:14:52.709Z,85.32
2018-12-24T07:17:26.604Z,85.34
2018-12-24T07:19:59.639Z,84.91
2018-12-24T07:22:33.662Z,84.77
2018-12-24T07:25:05.062Z,85.83
2018-12-24T07:27:37.723Z,86.34
2018-12-24T07:30:09.700Z,84.96
2018-12-24T07:32:43.141Z,85.47
2018-12-24T07:35:16.851Z,85.17
2018-12-24T07:37:48.234Z,85.86
2018-12-24T07:40:20.827Z,86.70
2018-12-24T07:42:54.807Z,86.21
2018-12-24T07:45:28.858Z,86.11
2018-12-24T07:48:01.808Z,86.02
2018-12-24T07:50:33.362Z,86.00
2018-12-24T07:53:06.724Z,86.33
2018-12-24T07:55:39.574Z,86.28
2018-12-24T07:58:14.401Z,86.54
2018-12-24T08:00:48.902Z,87.16
2018-12-24T08:03:20.572Z,85.50
2018-12-24T08:05:51.826Z,86.01
2018-12-24T08:08:25.861Z,85.82
2018-12-24T08:10:58.945Z,85.70
2018-12-24T08:13:33.017Z,85.38
2018-12-24T08:16:05.872Z,85.58
2018-12-24T08:18:38.912Z,84.37
2018-12-24T08:21:10.647Z,85.24
2018-12-24T08:23:44.878Z,85.08
2018-12-24T08:26:17.927Z,85.09
2018-12-24T08:28:53.169Z,85.38
2018-12-24T08:31:24.827Z,85.37
2018-12-24T08:33:59.752Z,85.60
2018-12-24T08:36:31.059Z,85.57
2018-12-24T08:39:03.523Z,85.16
2018-12-24T08:41:37.089Z,85.56
2018-12-24T08:44:10.747Z,86.94
2018-12-24T08:46:42.386Z,85.90
2018-12-24T08:49:15.980Z,85.95
2018-12-24T08:51:48.968Z,86.56
2018-12-24T08:54:20.497Z,86.90
2018-12-24T08:56:54.123Z,87.40
2018-12-24T08:59:28.098Z,86.82
2018-12-24T09:02:00.740Z,87.28
2018-12-24T09:04:36.600Z,86.30
2018-12-24T09:07:09.094Z,86.64
2018-12-24T09:09:42.240Z,87.61
2018-12-24T09:12:17.689Z,87.04
2018-12-24T09:14:50.306Z,86.90
2018-12-24T09:17:24.817Z,87.37
2018-12-24T09:19:57.077Z,87.19
2018-12-24T09:22:33.162Z,88.28
2018-12-24T09:25:06.841Z,86.61
2018-12-24T09:27:38.836Z,86.46
2018-12-24T09:30:13.694Z,87.44
2018-12-24T09:32:45.555Z,86.11
2018-12-24T09:35:19.343Z,85.60
2018-12-24T09:37:52.211Z,85.80
2018-12-24T09:40:35.362Z,85.06
2018-12-24T09:43:06.615Z,86.03
2018-12-24T09:45:40.187Z,86.93
2018-12-24T09:48:15.731Z,86.60
2018-12-24T09:50:47.402Z,86.29
2018-12-24T09:53:19.427Z,85.40
2018-12-24T09:55:51.795Z,86.34
2018-12-24T09:58:25.326Z,86.59
2018-12-24T10:01:01.059Z,86.91
2018-12-24T10:03:41.245Z,85.78
2018-12-24T10:06:17.304Z,85.79
2018-12-24T10:08:49.437Z,85.65
2018-12-24T10:11:23.422Z,85.82
2018-12-24T10:13:56.400Z,86.43
2018-12-24T10:16:31.910Z,85.97
2018-12-24T10:19:03.246Z,86.94
2018-12-24T10:21:36.087Z,88.35
2018-12-24T10:24:07.293Z,85.63
2018-12-24T10:26:40.425Z,85.62
2018-12-24T10:29:13.386Z,86.70
2018-12-24T10:31:45.507Z,87.68
2018-12-24T10:34:17.173Z,86.20
2018-12-24T10:36:49.550Z,86.38
2018-12-24T10:39:23.553Z,85.04
2018-12-24T10:41:58.107Z,86.01
2018-12-24T10:44:32.098Z,86.20
2018-12-24T10:47:04.265Z,85.26
2018-12-24T10:49:38.533Z,83.62
2018-12-24T10:52:11.710Z,82.15
2018-12-24T10:54:45.621Z,83.41
2018-12-24T10:57:19.706Z,82.71
2018-12-24T10:59:52.672Z,83.23
2018-12-24T11:02:23.899Z,82.83
2018-12-24T11:04:59.918Z,82.87
2018-12-24T11:07:35.111Z,82.71
2018-12-24T11:10:10.259Z,81.81
2018-12-24T11:12:42.064Z,82.02
2018-12-24T11:15:15.629Z,81.37
2018-12-24T11:17:49.861Z,81.99
2018-12-24T11:20:22.763Z,82.53
2018-12-24T11:22:56.658Z,82.41
2018-12-24T11:25:29.800Z,80.46
2018-12-24T11:28:47.337Z,80.44
2018-12-24T11:31:19.809Z,81.42
2018-12-24T11:33:52.810Z,81.89
2018-12-24T11:36:26.667Z,81.98
2018-12-24T11:39:00.731Z,81.93
2018-12-24T11:41:32.770Z,81.27
2018-12-24T11:44:04.710Z,81.82
2018-12-24T11:46:37.831Z,80.66
2018-12-24T11:49:10.868Z,80.18
2018-12-24T11:51:42.787Z,79.02
2018-12-24T11:54:14.032Z,80.85
2018-12-24T11:56:46.833Z,79.82
2018-12-24T11:59:18.962Z,79.40
2018-12-24T12:01:53.797Z,79.43
2018-12-24T12:04:26.056Z,79.82
2018-12-24T12:06:58.873Z,80.32
2018-12-24T12:09:32.845Z,79.21
2018-12-24T12:12:05.059Z,78.74
2018-12-24T12:14:37.033Z,79.04
2018-12-24T12:17:12.545Z,78.18
2018-12-24T12:19:45.310Z,79.85
2018-12-24T12:22:16.579Z,79.71
2018-12-24T12:24:50.685Z,80.03
2018-12-24T12:27:22.972Z,81.05
2018-12-24T12:29:57.016Z,80.43
2018-12-24T12:32:31.057Z,81.51
2018-12-24T12:35:03.970Z,80.33
2018-12-24T12:37:37.004Z,79.68
2018-12-24T12:40:09.968Z,78.61
2018-12-24T12:42:42.258Z,77.22
2018-12-24T12:45:16.124Z,76.46
2018-12-24T12:47:49.534Z,76.80
2018-12-24T12:50:22.934Z,76.48
2018-12-24T12:52:56.161Z,77.46
2018-12-24T12:55:30.057Z,77.94
2018-12-24T12:58:05.603Z,78.26
2018-12-24T13:00:36.946Z,78.81
2018-12-24T13:03:12.312Z,79.02
2018-12-24T13:05:47.394Z,80.39
2018-12-24T13:08:20.824Z,82.21
2018-12-24T13:10:53.086Z,83.07
2018-12-24T13:13:26.233Z,84.09
2018-12-24T13:16:01.731Z,82.19
2018-12-24T13:18:35.176Z,83.32
2018-12-24T13:21:07.115Z,82.43
2018-12-24T13:23:39.260Z,79.84
2018-12-24T13:26:12.067Z,80.42
2018-12-24T13:28:47.849Z,78.83
2018-12-24T13:31:19.434Z,77.92
2018-12-24T13:33:50.652Z,78.74
2018-12-24T13:36:24.349Z,79.82
2018-12-24T13:38:57.186Z,80.29
2018-12-24T13:41:32.998Z,80.62
2018-12-24T13:44:06.744Z,81.83
2018-12-24T13:46:38.559Z,82.07
2018-12-24T13:49:13.971Z,82.44
2018-12-24T13:51:46.402Z,82.81
2018-12-24T13:54:19.383Z,82.74
2018-12-24T13:56:54.089Z,83.22
2018-12-24T13:59:27.693Z,81.15
2018-12-24T14:02:08.007Z,79.15
2018-12-24T14:04:44.018Z,77.76
2018-12-24T14:07:18.807Z,77.92
2018-12-24T14:09:53.560Z,78.17
2018-12-24T14:12:27.432Z,78.93
2018-12-24T14:15:03.358Z,77.91
2018-12-24T14:17:36.955Z,77.22
2018-12-24T14:20:12.254Z,77.83
2018-12-24T14:22:45.467Z,78.56
2018-12-24T14:25:21.145Z,78.23
2018-12-24T14:27:54.606Z,78.72
2018-12-24T14:30:29.696Z,78.32
2018-12-24T14:33:03.576Z,78.76
2018-12-24T14:35:37.975Z,77.99
2018-12-24T14:38:13.486Z,78.72
2018-12-24T14:40:47.984Z,78.36
2018-12-24T14:43:22.598Z,78.14
2018-12-24T14:45:54.730Z,78.85
2018-12-24T14:48:25.958Z,78.69
2018-12-24T14:50:59.595Z,78.11
2018-12-24T14:53:32.602Z,79.20
2018-12-24T14:56:05.422Z,78.87
2018-12-24T14:58:37.629Z,79.29
2018-12-24T15:01:10.639Z,80.01
2018-12-24T15:03:42.799Z,78.98
2018-12-24T15:06:15.475Z,77.73
2018-12-24T15:08:48.680Z,78.90
2018-12-24T15:11:21.682Z,79.11
2018-12-24T15:13:55.450Z,79.43
2018-12-24T15:16:33.996Z,78.06
2018-12-24T15:19:03.982Z,78.48
2018-12-24T15:21:41.372Z,78.36
2018-12-24T15:24:13.815Z,78.31
2018-12-24T15:26:45.772Z,78.46
2018-12-24T15:29:19.769Z,78.31
2018-12-24T15:31:55.230Z,78.15
2018-12-24T15:34:27.828Z,78.05
2018-12-24T15:37:01.265Z,78.17
2018-12-24T15:39:34.909Z,77.75
2018-12-24T15:42:07.360Z,77.96
2018-12-24T15:44:39.834Z,78.32
2018-12-24T15:47:12.871Z,78.42
2018-12-24T15:49:46.689Z,77.81
2018-12-24T15:52:19.884Z,77.90
2018-12-24T15:54:53.921Z,78.43
2018-12-24T15:57:25.909Z,78.43
2018-12-24T15:59:59.938Z,77.96
2018-12-24T16:02:31.564Z,78.98
2018-12-24T16:05:02.883Z,78.69
2018-12-24T16:07:35.862Z,78.53
2018-12-24T16:10:07.280Z,78.23
2018-12-24T16:12:40.063Z,78.22
2018-12-24T16:15:13.970Z,78.29
2018-12-24T16:17:47.115Z,77.76
2018-12-24T16:20:19.886Z,78.27
2018-12-24T16:22:52.029Z,79.10
2018-12-24T16:25:26.022Z,78.75
2018-12-24T16:28:00.026Z,78.75
2018-12-24T16:30:33.044Z,78.83
2018-12-24T16:33:07.135Z,78.23
2018-12-24T16:35:39.940Z,77.67
2018-12-24T16:38:13.706Z,77.22
2018-12-24T16:40:45.322Z,77.77
2018-12-24T16:43:18.964Z,77.73
2018-12-24T16:45:53.012Z,78.10
2018-12-24T16:48:26.274Z,78.66
2018-12-24T16:50:59.262Z,78.31
2018-12-24T16:53:40.336Z,77.76
2018-12-24T16:56:05.945Z,78.35
2018-12-24T16:58:38.133Z,78.21
2018-12-24T17:01:11.380Z,78.10
2018-12-24T17:03:48.501Z,77.65
2018-12-24T17:06:21.846Z,77.33
2018-12-24T17:08:54.084Z,78.27
2018-12-24T17:11:28.105Z,77.54
2018-12-24T17:14:01.305Z,76.70
2018-12-24T17:16:34.760Z,77.95
2018-12-24T17:19:07.266Z,77.96
2018-12-24T17:21:39.376Z,77.11
2018-12-24T17:24:11.306Z,77.34
2018-12-24T17:26:43.656Z,77.70
2018-12-24T17:29:17.152Z,77.34
2018-12-24T17:31:50.172Z,76.93
2018-12-24T17:34:24.124Z,77.47
2018-12-24T17:36:57.402Z,76.81
2018-12-24T17:39:31.458Z,76.99
2018-12-24T17:42:05.298Z,77.41
2018-12-24T17:44:39.313Z,77.49
2018-12-24T17:47:16.346Z,77.08
2018-12-24T17:49:46.300Z,77.25
2018-12-24T17:52:20.314Z,77.45
2018-12-24T17:54:53.313Z,77.17
2018-12-24T17:57:27.266Z,77.50
2018-12-24T17:59:58.849Z,77.34
2018-12-24T18:02:31.471Z,76.30
2018-12-24T18:05:07.022Z,76.36
2018-12-24T18:07:38.809Z,75.26
2018-12-24T18:10:11.663Z,75.29
2018-12-24T18:12:45.397Z,75.89
2018-12-24T18:15:19.171Z,76.90
2018-12-24T18:17:54.394Z,76.74
2018-12-24T18:20:28.101Z,76.36
2018-12-24T18:22:59.513Z,76.16
2018-12-24T18:25:33.845Z,76.91
2018-12-24T18:28:07.715Z,76.12
2018-12-24T18:30:42.023Z,76.09
2018-12-24T18:33:14.958Z,77.00
2018-12-24T18:35:49.442Z,76.25
2018-12-24T18:38:21.548Z,76.75
2018-12-24T18:40:56.300Z,77.22
2018-12-24T18:43:29.532Z,77.37
2018-12-24T18:46:02.671Z,77.62
2018-12-24T18:48:37.071Z,77.88
2018-12-24T18:51:10.812Z,77.64
2018-12-24T18:53:44.481Z,77.54
2018-12-24T18:56:18.435Z,78.24
2018-12-24T18:58:51.721Z,77.62
2018-12-24T19:01:25.717Z,77.12
2018-12-24T19:03:59.792Z,78.52
2018-12-24T19:06:33.562Z,78.10
2018-12-24T19:09:07.520Z,78.09
2018-12-24T19:11:40.736Z,77.75
2018-12-24T19:14:13.728Z,78.25
2018-12-24T19:16:47.766Z,78.22
2018-12-24T19:19:19.698Z,78.64
2018-12-24T19:21:51.911Z,78.88
2018-12-24T19:24:25.893Z,79.22
2018-12-24T19:26:58.805Z,79.49
2018-12-24T19:29:32.965Z,80.82
2018-12-24T19:32:04.805Z,79.33
2018-12-24T19:34:38.101Z,77.68
2018-12-24T19:37:12.882Z,78.11
2018-12-24T19:39:48.556Z,78.19
2018-12-24T19:42:20.917Z,78.10
2018-12-24T19:44:52.913Z,75.96
2018-12-24T19:47:24.971Z,76.29
2018-12-24T19:50:00.980Z,78.14
2018-12-24T19:52:32.918Z,76.85
2018-12-24T19:55:07.257Z,76.98
2018-12-24T19:57:39.920Z,75.65
2018-12-24T20:00:13.898Z,75.34
2018-12-24T20:02:45.111Z,75.48
2018-12-24T20:05:17.011Z,74.76
2018-12-24T20:07:49.243Z,74.67
2018-12-24T20:10:24.120Z,73.20
2018-12-24T20:12:59.335Z,73.33
2018-12-24T20:15:33.745Z,72.12
2018-12-24T20:18:07.067Z,72.30
2018-12-24T20:20:41.499Z,72.05
2018-12-24T20:23:16.866Z,73.08
2018-12-24T20:25:50.980Z,73.71
2018-12-24T20:28:24.145Z,74.22
2018-12-24T20:30:56.933Z,73.08
2018-12-24T20:33:30.256Z,73.10
2018-12-24T20:36:02.187Z,73.88
2018-12-24T20:38:37.160Z,73.47
2018-12-24T20:41:11.113Z,73.47
2018-12-24T20:43:44.075Z,74.06
2018-12-24T20:46:17.505Z,73.60
2018-12-24T20:48:52.585Z,74.21
2018-12-24T20:51:24.759Z,73.77
2018-12-24T20:53:57.502Z,73.00
2018-12-24T20:56:31.174Z,73.82
2018-12-24T20:59:02.917Z,73.55
2018-12-24T21:01:35.111Z,74.37
2018-12-24T21:04:07.710Z,75.76
2018-12-24T21:06:40.275Z,75.07
2018-12-24T21:09:14.251Z,75.06
2018-12-24T21:11:47.524Z,72.99
2018-12-24T21:14:18.710Z,74.30
2018-12-24T21:16:52.495Z,73.80
2018-12-24T21:19:26.287Z,72.93
2018-12-24T21:21:59.319Z,73.28
2018-12-24T21:24:34.911Z,73.77
2018-12-24T21:27:07.725Z,73.68
2018-12-24T21:29:40.330Z,73.69
2018-12-24T21:32:14.337Z,75.04
2018-12-24T21:34:47.347Z,73.66
2018-12-24T21:37:22.606Z,75.60
2018-12-24T21:39:56.525Z,74.74
2018-12-24T21:42:28.451Z,73.27
2018-12-24T21:44:59.827Z,71.81
2018-12-24T21:47:34.019Z,72.43
2018-12-24T21:50:06.438Z,72.55
2018-12-24T21:52:39.601Z,72.76
2018-12-24T21:55:11.289Z,72.68
2018-12-24T21:57:44.552Z,73.31
2018-12-24T22:00:17.336Z,74.08
2018-12-24T22:02:48.598Z,73.03
2018-12-24T22:05:20.157Z,73.01
2018-12-24T22:07:52.810Z,73.03
2018-12-24T22:10:26.499Z,73.25
2018-12-24T22:12:57.722Z,73.72
2018-12-24T22:15:31.478Z,73.18
2018-12-24T22:18:03.440Z,73.20
2018-12-24T22:20:36.651Z,73.20
2018-12-24T22:23:08.436Z,73.67
2018-12-24T22:25:42.169Z,74.70
2018-12-24T22:28:16.657Z,74.60
2018-12-24T22:30:47.710Z,74.49
2018-12-24T22:33:23.197Z,73.42
2018-12-24T22:35:55.868Z,74.19
2018-12-24T22:38:28.844Z,75.45
2018-12-24T22:41:02.502Z,74.29
2018-12-24T22:43:35.547Z,73.93
2018-12-24T22:46:07.854Z,75.27
2018-12-24T22:48:40.808Z,75.95
2018-12-24T22:51:14.688Z,74.70
2018-12-24T22:53:46.648Z,74.41
2018-12-24T22:56:18.217Z,75.63
2018-12-24T22:58:50.713Z,75.05
2018-12-24T23:01:26.383Z,75.05
2018-12-24T23:03:59.208Z,75.32
2018-12-24T23:06:32.045Z,74.49
2018-12-24T23:09:09.108Z,74.09
2018-12-24T23:11:43.962Z,74.61
2018-12-24T23:14:17.761Z,74.11
2018-12-24T23:16:49.712Z,73.00
2018-12-24T23:19:23.704Z,73.83
2018-12-24T23:21:54.936Z,74.20
2018-12-24T23:24:27.875Z,73.78
2018-12-24T23:27:01.883Z,74.02
2018-12-24T23:29:35.873Z,74.20
2018-12-24T23:32:08.026Z,74.00
2018-12-24T23:34:40.918Z,74.30
2018-12-24T23:37:14.658Z,75.15
2018-12-24T23:39:47.851Z,75.20
2018-12-24T23:42:21.892Z,75.78
2018-12-24T23:44:54.839Z,75.54
2018-12-24T23:47:28.888Z,74.46
2018-12-24T23:50:02.055Z,75.19
2018-12-24T23:52:36.220Z,75.35
2018-12-24T23:55:08.018Z,74.83
2018-12-24T23:57:40.395Z,75.41
